createdAt,value
2019-06-01T00:00:10.368Z,13.80
2019-06-01T00:02:28.242Z,13.70
2019-06-01T00:04:58.490Z,13.70
2019-06-01T00:07:28.727Z,13.70
2019-06-01T00:09:59.216Z,13.70
2019-06-01T00:12:29.154Z,13.70
2019-06-01T00:14:59.068Z,13.80
2019-06-01T00:17:28.961Z,13.90
2019-06-01T00:19:59.250Z,13.90
2019-06-01T00:22:29.895Z,13.80
2019-06-01T00:24:59.763Z,13.70
2019-06-01T00:27:29.449Z,13.70
2019-06-01T00:29:59.860Z,13.60
2019-06-01T00:32:29.483Z,13.60
2019-06-01T00:34:59.705Z,13.60
2019-06-01T00:37:29.623Z,13.50
2019-06-01T00:39:59.596Z,13.50
2019-06-01T00:42:30.156Z,13.40
2019-06-01T00:45:00.423Z,13.50
2019-06-01T00:47:30.099Z,13.50
2019-06-01T00:50:00.296Z,13.50
2019-06-01T00:52:30.237Z,13.50
2019-06-01T00:55:00.926Z,13.40
2019-06-01T00:57:31.563Z,13.40
2019-06-01T01:00:01.831Z,13.40
2019-06-01T01:02:31.459Z,13.40
2019-06-01T01:05:06.872Z,13.30
2019-06-01T01:07:38.250Z,13.30
2019-06-01T01:10:09.007Z,13.20
2019-06-01T01:12:56.373Z,13.20
2019-06-01T01:15:26.585Z,13.20
2019-06-01T01:17:56.406Z,13.20
2019-06-01T01:20:26.362Z,13.20
2019-06-01T01:22:56.450Z,13.20
2019-06-01T01:25:26.469Z,13.20
2019-06-01T01:27:57.037Z,13.10
2019-06-01T01:30:26.748Z,13.10
2019-06-01T01:32:59.041Z,13.10
2019-06-01T01:35:28.319Z,13.10
2019-06-01T01:37:59.048Z,13.10
2019-06-01T01:40:29.468Z,13.00
2019-06-01T01:42:59.414Z,13.00
2019-06-01T01:45:29.602Z,13.00
2019-06-01T01:47:59.576Z,13.00
2019-06-01T01:50:29.976Z,13.00
2019-06-01T01:52:59.974Z,13.10
2019-06-01T01:55:30.673Z,13.10
2019-06-01T01:58:01.618Z,13.10
2019-06-01T02:00:38.188Z,13.10
2019-06-01T02:03:10.360Z,13.10
2019-06-01T02:05:40.587Z,13.00
2019-06-01T02:08:10.754Z,13.00
2019-06-01T02:10:40.962Z,13.00
2019-06-01T02:13:10.963Z,12.90
2019-06-01T02:15:43.644Z,12.90
2019-06-01T02:18:13.841Z,12.90
2019-06-01T02:20:44.163Z,12.90
2019-06-01T02:23:13.814Z,12.90
2019-06-01T02:25:44.061Z,12.90
2019-06-01T02:28:14.052Z,12.90
2019-06-01T02:30:43.399Z,12.80
2019-06-01T02:33:13.351Z,12.80
2019-06-01T02:35:43.686Z,12.70
2019-06-01T02:38:13.999Z,12.70
2019-06-01T02:40:44.437Z,12.70
2019-06-01T02:43:14.952Z,12.60
2019-06-01T02:45:44.600Z,12.60
2019-06-01T02:48:14.270Z,12.60
2019-06-01T02:50:44.372Z,12.50
2019-06-01T02:53:14.671Z,12.50
2019-06-01T02:55:44.920Z,12.50
2019-06-01T02:58:15.277Z,12.50
2019-06-01T03:01:56.000Z,12.50
2019-06-01T03:04:13.135Z,12.50
2019-06-01T03:06:44.266Z,12.40
2019-06-01T03:09:14.624Z,12.30
2019-06-01T03:11:44.898Z,12.30
2019-06-01T03:14:15.272Z,12.20
2019-06-01T03:16:44.722Z,12.20
2019-06-01T03:19:17.333Z,12.20
2019-06-01T03:21:50.082Z,12.20
2019-06-01T03:24:25.409Z,12.20
2019-06-01T03:26:55.753Z,12.20
2019-06-01T03:29:28.882Z,12.20
2019-06-01T03:32:20.953Z,12.30
2019-06-01T03:34:31.095Z,12.30
2019-06-01T03:37:02.776Z,12.30
2019-06-01T03:39:33.376Z,12.40
2019-06-01T03:42:03.334Z,12.40
2019-06-01T03:44:33.845Z,12.50
2019-06-01T03:47:05.576Z,12.50
2019-06-01T03:49:35.852Z,12.60
2019-06-01T03:52:06.933Z,12.70
2019-06-01T03:54:37.230Z,12.70
2019-06-01T03:57:07.468Z,12.80
2019-06-01T03:59:37.508Z,12.90
2019-06-01T04:02:07.437Z,13.00
2019-06-01T04:04:37.907Z,13.10
2019-06-01T04:07:08.342Z,13.10
2019-06-01T04:09:38.668Z,13.20
2019-06-01T04:12:09.678Z,13.30
2019-06-01T04:14:39.519Z,13.40
2019-06-01T04:17:10.196Z,13.50
2019-06-01T04:19:43.500Z,13.70
2019-06-01T04:22:14.958Z,13.80
2019-06-01T04:24:45.426Z,14.60
2019-06-01T04:27:18.046Z,16.00
2019-06-01T04:29:48.684Z,17.40
2019-06-01T04:32:19.089Z,18.70
2019-06-01T04:34:49.397Z,19.90
2019-06-01T04:37:19.072Z,20.50
2019-06-01T04:39:49.761Z,20.90
2019-06-01T04:42:19.867Z,21.30
2019-06-01T04:44:49.874Z,21.80
2019-06-01T04:47:20.194Z,22.00
2019-06-01T04:49:50.160Z,22.40
2019-06-01T04:52:20.614Z,22.60
2019-06-01T04:54:50.975Z,22.80
2019-06-01T04:57:21.101Z,23.40
2019-06-01T04:59:51.366Z,23.70
2019-06-01T05:02:21.463Z,22.90
2019-06-01T05:04:52.140Z,22.70
2019-06-01T05:07:22.181Z,23.10
2019-06-01T05:09:52.157Z,23.20
2019-06-01T05:12:22.710Z,23.50
2019-06-01T05:14:52.634Z,23.80
2019-06-01T05:17:22.955Z,24.00
2019-06-01T05:19:53.373Z,23.80
2019-06-01T05:22:23.146Z,23.80
2019-06-01T05:24:53.550Z,23.90
2019-06-01T05:27:24.333Z,24.30
2019-06-01T05:29:54.260Z,24.40
2019-06-01T05:32:24.503Z,24.40
2019-06-01T05:34:54.904Z,24.30
2019-06-01T05:37:25.581Z,25.00
2019-06-01T05:39:55.785Z,25.50
2019-06-01T05:42:25.556Z,25.20
2019-06-01T05:44:55.837Z,25.40
2019-06-01T05:47:29.342Z,25.70
2019-06-01T05:49:59.322Z,25.90
2019-06-01T05:52:29.856Z,26.10
2019-06-01T05:55:00.255Z,25.90
2019-06-01T05:57:30.948Z,25.40
2019-06-01T06:00:02.552Z,25.50
2019-06-01T06:02:32.936Z,25.50
2019-06-01T06:05:03.285Z,25.30
2019-06-01T06:07:32.642Z,25.30
2019-06-01T06:10:03.306Z,25.50
2019-06-01T06:12:33.551Z,26.00
2019-06-01T06:15:03.850Z,26.50
2019-06-01T06:17:34.188Z,26.80
2019-06-01T06:20:04.311Z,27.00
2019-06-01T06:22:34.331Z,27.10
2019-06-01T06:25:04.377Z,27.70
2019-06-01T06:27:34.985Z,28.20
2019-06-01T06:30:05.697Z,28.50
2019-06-01T06:32:35.746Z,28.40
2019-06-01T06:35:06.403Z,28.10
2019-06-01T06:37:36.659Z,28.40
2019-06-01T06:40:07.268Z,28.50
2019-06-01T06:42:37.926Z,28.60
2019-06-01T06:45:08.579Z,28.50
2019-06-01T06:47:39.196Z,28.10
2019-06-01T06:50:11.032Z,28.20
2019-06-01T06:52:40.987Z,27.80
2019-06-01T06:55:11.402Z,27.60
2019-06-01T06:57:41.751Z,28.00
2019-06-01T07:00:12.202Z,27.90
2019-06-01T07:02:42.429Z,28.00
2019-06-01T07:05:12.912Z,27.90
2019-06-01T07:07:42.816Z,27.90
2019-06-01T07:10:12.816Z,27.60
2019-06-01T07:12:43.087Z,27.60
2019-06-01T07:15:12.532Z,28.20
2019-06-01T07:17:42.939Z,28.30
2019-06-01T07:20:12.994Z,28.30
2019-06-01T07:22:43.621Z,27.80
2019-06-01T07:25:13.689Z,27.80
2019-06-01T07:27:43.985Z,27.40
2019-06-01T07:30:14.758Z,27.60
2019-06-01T07:32:44.380Z,28.20
2019-06-01T07:35:15.145Z,28.30
2019-06-01T07:37:45.424Z,28.10
2019-06-01T07:40:15.478Z,28.10
2019-06-01T07:42:46.054Z,28.60
2019-06-01T07:45:16.547Z,28.90
2019-06-01T07:47:46.418Z,28.70
2019-06-01T07:50:15.967Z,28.60
2019-06-01T07:52:45.915Z,28.30
2019-06-01T07:55:16.344Z,28.70
2019-06-01T07:57:46.034Z,28.80
2019-06-01T08:00:16.034Z,28.80
2019-06-01T08:02:46.714Z,28.60
2019-06-01T08:05:16.365Z,27.60
2019-06-01T08:07:46.043Z,27.70
2019-06-01T08:10:15.729Z,28.00
2019-06-01T08:12:45.814Z,28.20
2019-06-01T08:15:16.328Z,28.10
2019-06-01T08:17:46.752Z,28.10
2019-06-01T08:20:16.703Z,28.20
2019-06-01T08:22:46.886Z,28.30
2019-06-01T08:25:17.083Z,28.00
2019-06-01T08:27:47.448Z,28.10
2019-06-01T08:30:17.263Z,28.00
2019-06-01T08:32:47.212Z,27.80
2019-06-01T08:35:17.172Z,27.50
2019-06-01T08:37:46.490Z,27.90
2019-06-01T08:40:17.324Z,27.50
2019-06-01T08:42:47.532Z,27.30
2019-06-01T08:45:17.837Z,26.90
2019-06-01T08:47:47.314Z,27.30
2019-06-01T08:50:17.355Z,26.60
2019-06-01T08:52:48.035Z,26.10
2019-06-01T08:55:18.228Z,25.80
2019-06-01T08:57:48.851Z,25.20
2019-06-01T09:00:19.211Z,24.90
2019-06-01T09:02:49.035Z,24.60
2019-06-01T09:05:24.310Z,24.40
2019-06-01T09:07:50.784Z,24.30
2019-06-01T09:10:20.787Z,24.20
2019-06-01T09:12:50.905Z,24.20
2019-06-01T09:15:21.261Z,24.00
2019-06-01T09:17:51.281Z,24.00
2019-06-01T09:20:21.080Z,23.90
2019-06-01T09:22:51.853Z,23.90
2019-06-01T09:25:21.962Z,23.90
2019-06-01T09:27:52.372Z,24.30
2019-06-01T09:30:23.152Z,24.40
2019-06-01T09:32:53.613Z,24.30
2019-06-01T09:35:40.784Z,24.40
2019-06-01T09:37:54.973Z,24.20
2019-06-01T09:40:27.313Z,24.40
2019-06-01T09:42:57.364Z,24.40
2019-06-01T09:45:27.898Z,24.30
2019-06-01T09:47:58.430Z,24.40
2019-06-01T09:50:29.155Z,24.20
2019-06-01T09:52:59.567Z,24.30
2019-06-01T09:55:30.858Z,24.00
2019-06-01T09:58:00.580Z,24.10
2019-06-01T10:00:32.274Z,24.30
2019-06-01T10:03:02.689Z,24.30
2019-06-01T10:05:36.514Z,24.40
2019-06-01T10:09:45.212Z,24.70
2019-06-01T10:10:42.393Z,24.90
2019-06-01T10:13:12.448Z,24.80
2019-06-01T10:15:42.966Z,24.70
2019-06-01T10:18:13.523Z,24.90
2019-06-01T10:20:43.724Z,25.20
2019-06-01T10:23:42.753Z,25.20
2019-06-01T10:26:11.947Z,25.20
2019-06-01T10:28:42.338Z,25.20
2019-06-01T10:31:13.357Z,24.90
2019-06-01T10:33:43.489Z,24.80
2019-06-01T10:36:20.320Z,24.80
2019-06-01T10:38:45.499Z,25.00
2019-06-01T10:41:15.607Z,25.10
2019-06-01T10:43:46.589Z,25.20
2019-06-01T10:46:16.709Z,25.20
2019-06-01T10:48:47.399Z,25.20
2019-06-01T10:51:17.958Z,25.40
2019-06-01T10:53:48.798Z,25.60
2019-06-01T10:56:19.556Z,25.80
2019-06-01T10:59:00.051Z,25.90
2019-06-01T11:01:22.187Z,26.00
2019-06-01T11:03:52.322Z,26.00
2019-06-01T11:06:36.279Z,26.00
2019-06-01T11:08:55.220Z,26.00
2019-06-01T11:11:24.958Z,25.80
2019-06-01T11:13:55.700Z,25.90
2019-06-01T11:16:26.300Z,25.80
2019-06-01T11:18:57.160Z,25.80
2019-06-01T11:21:27.217Z,26.10
2019-06-01T11:23:59.607Z,26.30
2019-06-01T11:26:29.428Z,26.20
2019-06-01T11:28:59.599Z,25.80
2019-06-01T11:31:30.312Z,25.80
2019-06-01T11:34:00.091Z,25.80
2019-06-01T11:36:30.124Z,25.70
2019-06-01T11:39:03.640Z,25.60
2019-06-01T11:41:36.375Z,25.70
2019-06-01T11:44:06.043Z,25.70
2019-06-01T11:46:36.726Z,25.80
2019-06-01T11:49:06.536Z,25.80
2019-06-01T11:51:37.394Z,25.80
2019-06-01T11:54:07.552Z,25.70
2019-06-01T11:56:39.178Z,25.70
2019-06-01T11:59:09.475Z,25.70
2019-06-01T12:01:39.950Z,25.80
2019-06-01T12:04:10.316Z,25.70
2019-06-01T12:06:41.670Z,25.80
2019-06-01T12:09:13.876Z,25.90
2019-06-01T12:11:44.639Z,25.90
2019-06-01T12:14:14.290Z,25.70
2019-06-01T12:16:44.800Z,26.00
2019-06-01T12:19:14.937Z,26.00
2019-06-01T12:21:47.248Z,26.10
2019-06-01T12:24:17.678Z,26.00
2019-06-01T12:26:48.236Z,25.90
2019-06-01T12:29:19.163Z,25.70
2019-06-01T12:31:49.938Z,25.50
2019-06-01T12:34:20.439Z,25.50
2019-06-01T12:36:52.120Z,25.70
2019-06-01T12:39:22.680Z,25.90
2019-06-01T12:41:52.940Z,26.20
2019-06-01T12:44:23.465Z,26.50
2019-06-01T12:46:54.375Z,26.50
2019-06-01T12:49:24.759Z,26.60
2019-06-01T12:51:54.756Z,26.60
2019-06-01T12:54:24.749Z,26.70
2019-06-01T12:56:54.531Z,26.60
2019-06-01T12:59:24.561Z,26.50
2019-06-01T13:01:54.623Z,26.40
2019-06-01T13:04:24.913Z,26.40
2019-06-01T13:06:55.031Z,26.30
2019-06-01T13:09:25.143Z,26.10
2019-06-01T13:11:54.806Z,26.10
2019-06-01T13:14:27.844Z,26.00
2019-06-01T13:17:07.080Z,26.10
2019-06-01T13:19:31.935Z,26.30
2019-06-01T13:22:01.628Z,26.30
2019-06-01T13:24:32.278Z,26.20
2019-06-01T13:27:02.070Z,26.20
2019-06-01T13:29:32.387Z,26.30
2019-06-01T13:32:02.139Z,26.40
2019-06-01T13:34:34.263Z,26.50
2019-06-01T13:37:04.461Z,26.50
2019-06-01T13:39:34.741Z,26.50
2019-06-01T13:42:05.216Z,26.50
2019-06-01T13:44:34.969Z,26.30
2019-06-01T13:47:05.331Z,26.20
2019-06-01T13:49:35.996Z,26.40
2019-06-01T13:52:07.118Z,26.50
2019-06-01T13:54:40.114Z,26.40
2019-06-01T13:57:09.598Z,26.50
2019-06-01T13:59:40.893Z,26.60
2019-06-01T14:02:11.331Z,26.70
2019-06-01T14:04:41.007Z,26.80
2019-06-01T14:07:11.564Z,26.60
2019-06-01T14:09:41.702Z,26.40
2019-06-01T14:12:11.392Z,26.40
2019-06-01T14:14:41.313Z,26.50
2019-06-01T14:17:12.044Z,26.40
2019-06-01T14:19:42.501Z,26.10
2019-06-01T14:22:12.179Z,26.20
2019-06-01T14:24:44.521Z,26.20
2019-06-01T14:27:14.311Z,26.30
2019-06-01T14:29:44.375Z,26.40
2019-06-01T14:32:14.581Z,26.50
2019-06-01T14:34:46.325Z,26.60
2019-06-01T14:37:16.336Z,26.60
2019-06-01T14:39:46.847Z,26.50
2019-06-01T14:42:17.083Z,26.50
2019-06-01T14:44:47.157Z,26.30
2019-06-01T14:47:18.706Z,26.20
2019-06-01T14:49:49.445Z,26.20
2019-06-01T14:52:19.643Z,26.30
2019-06-01T14:54:49.989Z,26.20
2019-06-01T14:57:20.301Z,26.10
2019-06-01T14:59:50.492Z,26.10
2019-06-01T15:02:20.871Z,26.20
2019-06-01T15:04:50.617Z,26.40
2019-06-01T15:07:20.619Z,26.50
2019-06-01T15:09:52.289Z,26.60
2019-06-01T15:12:22.851Z,26.40
2019-06-01T15:14:53.021Z,26.40
2019-06-01T15:17:23.502Z,26.30
2019-06-01T15:19:54.187Z,26.40
2019-06-01T15:22:24.363Z,26.40
2019-06-01T15:24:54.672Z,26.40
2019-06-01T15:27:25.116Z,26.50
2019-06-01T15:29:55.072Z,26.50
2019-06-01T15:32:26.847Z,26.30
2019-06-01T15:34:57.017Z,26.20
2019-06-01T15:37:27.870Z,26.10
2019-06-01T15:39:58.720Z,26.20
2019-06-01T15:42:28.779Z,26.20
2019-06-01T15:44:59.401Z,26.20
2019-06-01T15:47:29.396Z,26.20
2019-06-01T15:50:00.102Z,26.30
2019-06-01T15:52:29.902Z,26.20
2019-06-01T15:55:00.548Z,26.30
2019-06-01T15:57:30.724Z,26.40
2019-06-01T16:00:01.063Z,26.30
2019-06-01T16:02:31.423Z,26.30
2019-06-01T16:05:01.643Z,26.30
2019-06-01T16:07:32.052Z,26.40
2019-06-01T16:10:06.410Z,26.30
2019-06-01T16:12:34.729Z,26.30
2019-06-01T16:15:05.532Z,26.30
2019-06-01T16:17:35.183Z,26.30
2019-06-01T16:20:07.160Z,26.30
2019-06-01T16:22:37.326Z,26.20
2019-06-01T16:25:07.819Z,26.10
2019-06-01T16:27:37.858Z,26.10
2019-06-01T16:30:08.523Z,26.00
2019-06-01T16:32:39.800Z,26.00
2019-06-01T16:35:09.744Z,25.80
2019-06-01T16:37:40.259Z,25.80
2019-06-01T16:40:11.152Z,26.00
2019-06-01T16:42:42.124Z,26.00
2019-06-01T16:45:12.985Z,25.90
2019-06-01T16:47:42.918Z,25.80
2019-06-01T16:50:13.978Z,25.90
2019-06-01T16:52:44.446Z,25.90
2019-06-01T16:55:14.763Z,25.90
2019-06-01T16:57:45.192Z,26.00
2019-06-01T17:00:16.959Z,25.90
2019-06-01T17:02:46.917Z,26.00
2019-06-01T17:05:17.587Z,26.00
2019-06-01T17:07:47.689Z,25.90
2019-06-01T17:10:26.221Z,26.00
2019-06-01T17:12:49.986Z,25.90
2019-06-01T17:15:20.602Z,25.70
2019-06-01T17:17:50.902Z,25.70
2019-06-01T17:20:41.867Z,25.80
2019-06-01T17:23:26.262Z,25.80
2019-06-01T17:25:44.383Z,25.80
2019-06-01T17:28:14.551Z,25.70
2019-06-01T17:30:44.925Z,25.70
2019-06-01T17:33:15.444Z,25.60
2019-06-01T17:35:45.538Z,25.50
2019-06-01T17:38:16.176Z,25.40
2019-06-01T17:40:46.030Z,25.40
2019-06-01T17:43:15.921Z,25.40
2019-06-01T17:45:46.358Z,25.40
2019-06-01T17:48:25.746Z,26.10
2019-06-01T17:50:48.624Z,26.90
2019-06-01T17:53:19.658Z,28.10
2019-06-01T17:55:49.758Z,28.70
2019-06-01T17:58:19.174Z,29.00
2019-06-01T18:00:49.393Z,29.00
2019-06-01T18:03:20.193Z,29.10
2019-06-01T18:05:50.790Z,29.20
2019-06-01T18:08:20.973Z,29.40
2019-06-01T18:10:54.614Z,29.70
2019-06-01T18:13:23.468Z,29.30
2019-06-01T18:15:54.001Z,28.80
2019-06-01T18:18:24.368Z,28.80
2019-06-01T18:20:54.651Z,29.00
2019-06-01T18:23:24.697Z,28.90
2019-06-01T18:25:55.467Z,28.80
2019-06-01T18:28:25.996Z,28.60
2019-06-01T18:30:55.935Z,28.40
2019-06-01T18:33:26.312Z,27.90
2019-06-01T18:35:57.211Z,27.70
2019-06-01T18:38:29.204Z,27.20
2019-06-01T18:41:09.503Z,26.70
2019-06-01T18:43:31.946Z,26.00
2019-06-01T18:46:03.613Z,25.20
2019-06-01T18:48:33.822Z,24.30
2019-06-01T18:51:05.942Z,23.60
2019-06-01T18:53:36.330Z,22.90
2019-06-01T18:56:08.049Z,22.40
2019-06-01T18:58:38.253Z,21.90
2019-06-01T19:01:08.424Z,21.60
2019-06-01T19:03:39.360Z,21.40
2019-06-01T19:06:09.882Z,21.30
2019-06-01T19:08:39.626Z,21.20
2019-06-01T19:11:24.712Z,21.20
2019-06-01T19:13:42.224Z,21.10
2019-06-01T19:16:12.656Z,21.10
2019-06-01T19:18:43.287Z,21.00
2019-06-01T19:21:14.806Z,20.70
2019-06-01T19:23:44.939Z,20.60
2019-06-01T19:26:16.408Z,20.40
2019-06-01T19:28:47.124Z,20.50
2019-06-01T19:31:18.264Z,20.40
2019-06-01T19:33:48.921Z,20.30
2019-06-01T19:36:19.233Z,20.20
2019-06-01T19:38:49.942Z,20.20
2019-06-01T19:41:20.002Z,20.20
2019-06-01T19:43:49.819Z,20.20
2019-06-01T19:46:20.315Z,20.10
2019-06-01T19:48:50.764Z,20.20
2019-06-01T19:51:20.874Z,20.10
2019-06-01T19:53:51.402Z,20.10
2019-06-01T19:56:21.869Z,19.90
2019-06-01T19:58:51.762Z,19.70
2019-06-01T20:01:22.675Z,19.60
2019-06-01T20:03:52.628Z,19.70
2019-06-01T20:06:23.432Z,20.00
2019-06-01T20:08:53.552Z,20.00
2019-06-01T20:11:23.803Z,20.00
2019-06-01T20:13:54.007Z,19.90
2019-06-01T20:16:24.421Z,19.80
2019-06-01T20:18:54.955Z,19.70
2019-06-01T20:21:25.404Z,19.70
2019-06-01T20:23:56.148Z,19.80
2019-06-01T20:26:40.386Z,19.70
2019-06-01T20:28:59.161Z,19.80
2019-06-01T20:31:29.248Z,19.80
2019-06-01T20:33:59.981Z,20.00
2019-06-01T20:36:32.130Z,20.10
2019-06-01T20:39:04.461Z,20.20
2019-06-01T20:41:35.208Z,20.20
2019-06-01T20:44:06.348Z,20.30
2019-06-01T20:46:37.243Z,20.20
2019-06-01T20:49:07.306Z,20.20
2019-06-01T20:51:37.456Z,20.10
2019-06-01T20:54:07.980Z,20.10
2019-06-01T20:56:37.838Z,20.20
2019-06-01T20:59:07.895Z,20.30
2019-06-01T21:01:38.025Z,20.20
2019-06-01T21:04:08.109Z,20.20
2019-06-01T21:06:38.410Z,20.10
2019-06-01T21:09:10.095Z,20.00
2019-06-01T21:11:40.681Z,19.90
2019-06-01T21:14:11.300Z,19.70
2019-06-01T21:16:40.991Z,19.60
2019-06-01T21:19:11.188Z,19.70
2019-06-01T21:21:41.257Z,19.80
2019-06-01T21:24:11.653Z,19.70
2019-06-01T21:26:41.679Z,19.80
2019-06-01T21:29:11.827Z,19.90
2019-06-01T21:31:41.517Z,19.90
2019-06-01T21:34:12.135Z,19.80
2019-06-01T21:36:42.745Z,19.80
2019-06-01T21:39:13.295Z,19.90
2019-06-01T21:41:43.250Z,19.90
2019-06-01T21:44:15.403Z,19.80
2019-06-01T21:46:45.710Z,19.90
2019-06-01T21:49:17.560Z,19.80
2019-06-01T21:51:48.713Z,19.70
2019-06-01T21:54:20.120Z,19.70
2019-06-01T21:56:51.225Z,19.70
2019-06-01T21:59:22.686Z,19.70
2019-06-01T22:01:53.016Z,19.70
2019-06-01T22:04:25.339Z,19.60
2019-06-01T22:06:56.178Z,19.40
2019-06-01T22:12:19.226Z,19.10
2019-06-01T22:14:49.621Z,19.00
2019-06-01T22:17:21.489Z,18.80
2019-06-01T22:19:52.507Z,18.70
2019-06-01T22:22:23.799Z,18.50
2019-06-01T22:24:55.462Z,18.30
2019-06-01T22:27:26.362Z,18.20
2019-06-01T22:29:57.737Z,18.10
2019-06-01T22:32:31.218Z,18.00
2019-06-01T22:35:01.747Z,18.00
2019-06-01T22:37:32.868Z,18.00
2019-06-01T22:40:03.272Z,18.00
2019-06-01T22:42:32.935Z,18.10
2019-06-01T22:45:03.431Z,18.00
2019-06-01T22:47:33.857Z,18.00
2019-06-01T22:50:04.969Z,17.90
2019-06-01T22:52:35.110Z,17.80
2019-06-01T22:55:05.725Z,17.80
2019-06-01T22:57:35.768Z,17.70
2019-06-01T23:00:06.895Z,17.60
2019-06-01T23:02:37.311Z,17.50
2019-06-01T23:05:07.957Z,17.50
2019-06-01T23:07:38.755Z,17.50
2019-06-01T23:10:09.786Z,17.50
2019-06-01T23:12:40.155Z,17.50
2019-06-01T23:15:10.679Z,17.60
2019-06-01T23:17:40.295Z,17.70
2019-06-01T23:20:10.581Z,17.90
2019-06-01T23:22:41.058Z,18.10
2019-06-01T23:25:11.056Z,18.40
2019-06-01T23:27:41.375Z,18.50
2019-06-01T23:30:11.607Z,18.40
2019-06-01T23:32:41.286Z,18.50
2019-06-01T23:35:12.004Z,18.50
2019-06-01T23:37:42.760Z,18.30
2019-06-01T23:40:13.491Z,18.30
2019-06-01T23:42:43.223Z,18.40
2019-06-01T23:45:13.585Z,18.30
2019-06-01T23:47:44.076Z,18.00
2019-06-01T23:50:14.918Z,17.90
2019-06-01T23:52:45.033Z,17.80
2019-06-01T23:55:14.439Z,17.80
2019-06-01T23:57:44.698Z,17.70
